Terminal Aerodrome Forecast
Issued by NWS Cleveland, OH

Home | Current Version | Previous Version | Text Only | Print | Product List | Glossary Off
Versions: 1 2 3 4 5 6 7 8 9 10 11 12 13 14 15 16 17 18 19 20 21

000
FTUS41 KCLE 171700
TAFTOL
TAF
KTOL 171729Z 1718/1818 07007KT P6SM BKN015 BKN025
     FM171900 08007KT P6SM SCT015 BKN025
     FM172000 08007KT P6SM SCT030 BKN050
      TEMPO 1810/1814 5SM BR BKN030 OVC050=

USA.gov is the U.S. government's official web portal to all federal, state and local government web resources and services.